sensor_id;sensor_type;location;lat;lon;timestamp;pressure;altitude;pressure_sealevel;temperature;humidity
80781;BME280;70341;56.408;10.874;2023-07-29T00:01:46;100649.23;;;18.73;70.29
80781;BME280;70341;56.408;10.874;2023-07-29T00:04:16;100648.44;;;18.71;70.13
80781;BME280;70341;56.408;10.874;2023-07-29T00:06:45;100644.73;;;18.72;70.03
80781;BME280;70341;56.408;10.874;2023-07-29T00:09:14;100648.44;;;18.71;70.19
80781;BME280;70341;56.408;10.874;2023-07-29T00:11:43;100646.40;;;18.72;70.18
80781;BME280;70341;56.408;10.874;2023-07-29T00:14:13;100639.06;;;18.73;70.06
80781;BME280;70341;56.408;10.874;2023-07-29T00:16:42;100640.49;;;18.76;70.09
80781;BME280;70341;56.408;10.874;2023-07-29T00:19:11;100637.13;;;18.78;69.95
80781;BME280;70341;56.408;10.874;2023-07-29T00:21:40;100634.94;;;18.78;70.03
80781;BME280;70341;56.408;10.874;2023-07-29T00:24:09;100628.98;;;18.76;69.84
80781;BME280;70341;56.408;10.874;2023-07-29T00:26:37;100634.21;;;18.76;69.59
80781;BME280;70341;56.408;10.874;2023-07-29T00:29:07;100627.73;;;18.76;69.46
80781;BME280;70341;56.408;10.874;2023-07-29T00:31:35;100622.48;;;18.77;69.53
80781;BME280;70341;56.408;10.874;2023-07-29T00:34:06;100624.19;;;18.75;69.59
80781;BME280;70341;56.408;10.874;2023-07-29T00:36:34;100626.93;;;18.72;69.88
80781;BME280;70341;56.408;10.874;2023-07-29T00:39:05;100624.86;;;18.69;70.00
80781;BME280;70341;56.408;10.874;2023-07-29T00:41:33;100625.35;;;18.65;69.90
80781;BME280;70341;56.408;10.874;2023-07-29T00:44:04;100623.21;;;18.65;69.95
80781;BME280;70341;56.408;10.874;2023-07-29T00:46:34;100617.91;;;18.66;69.92
80781;BME280;70341;56.408;10.874;2023-07-29T00:49:06;100609.83;;;18.65;69.92
80781;BME280;70341;56.408;10.874;2023-07-29T00:51:34;100614.75;;;18.67;69.91
80781;BME280;70341;56.408;10.874;2023-07-29T00:54:04;100620.19;;;18.67;69.81
80781;BME280;70341;56.408;10.874;2023-07-29T00:56:32;100617.15;;;18.69;69.73
80781;BME280;70341;56.408;10.874;2023-07-29T00:59:03;100610.27;;;18.69;69.96
80781;BME280;70341;56.408;10.874;2023-07-29T01:01:32;100610.56;;;18.72;69.86
80781;BME280;70341;56.408;10.874;2023-07-29T01:04:01;100606.36;;;18.73;69.96
80781;BME280;70341;56.408;10.874;2023-07-29T01:09:55;100601.40;;;18.72;69.77
80781;BME280;70341;56.408;10.874;2023-07-29T01:13:10;100602.09;;;18.75;69.69
80781;BME280;70341;56.408;10.874;2023-07-29T01:16:04;100601.05;;;18.79;69.49
80781;BME280;70341;56.408;10.874;2023-07-29T01:18:38;100594.38;;;18.81;69.29
80781;BME280;70341;56.408;10.874;2023-07-29T01:21:08;100595.95;;;18.84;69.30
80781;BME280;70341;56.408;10.874;2023-07-29T01:23:39;100591.88;;;18.85;69.10
80781;BME280;70341;56.408;10.874;2023-07-29T01:26:07;100591.64;;;18.86;68.92
80781;BME280;70341;56.408;10.874;2023-07-29T01:28:39;100587.84;;;18.89;68.81
80781;BME280;70341;56.408;10.874;2023-07-29T01:31:17;100588.52;;;18.92;68.82
80781;BME280;70341;56.408;10.874;2023-07-29T01:34:10;100585.36;;;18.93;68.79
80781;BME280;70341;56.408;10.874;2023-07-29T01:36:45;100580.64;;;18.96;68.75
80781;BME280;70341;56.408;10.874;2023-07-29T01:39:16;100582.83;;;18.98;68.73
80781;BME280;70341;56.408;10.874;2023-07-29T01:41:46;100581.73;;;18.98;68.57
80781;BME280;70341;56.408;10.874;2023-07-29T01:44:16;100583.88;;;18.98;68.60
80781;BME280;70341;56.408;10.874;2023-07-29T01:46:47;100579.76;;;19.00;68.53
80781;BME280;70341;56.408;10.874;2023-07-29T01:49:15;100580.59;;;19.01;68.52
80781;BME280;70341;56.408;10.874;2023-07-29T01:51:45;100575.40;;;19.01;68.57
80781;BME280;70341;56.408;10.874;2023-07-29T01:54:14;100574.56;;;19.00;68.73
80781;BME280;70341;56.408;10.874;2023-07-29T01:56:44;100571.29;;;18.98;68.84
80781;BME280;70341;56.408;10.874;2023-07-29T01:59:13;100571.08;;;18.96;68.82
80781;BME280;70341;56.408;10.874;2023-07-29T02:01:43;100566.72;;;18.97;68.75
80781;BME280;70341;56.408;10.874;2023-07-29T02:04:12;100563.73;;;18.96;68.69
80781;BME280;70341;56.408;10.874;2023-07-29T02:06:41;100561.59;;;18.96;68.82
80781;BME280;70341;56.408;10.874;2023-07-29T02:09:09;100562.48;;;18.96;68.83
80781;BME280;70341;56.408;10.874;2023-07-29T02:11:40;100557.39;;;18.94;68.92
80781;BME280;70341;56.408;10.874;2023-07-29T02:14:08;100559.58;;;18.91;68.81
80781;BME280;70341;56.408;10.874;2023-07-29T02:16:39;100558.71;;;18.91;68.85
80781;BME280;70341;56.408;10.874;2023-07-29T02:19:08;100556.40;;;18.93;68.83
80781;BME280;70341;56.408;10.874;2023-07-29T02:21:38;100564.34;;;18.93;68.88
80781;BME280;70341;56.408;10.874;2023-07-29T02:24:07;100559.77;;;18.89;68.81
80781;BME280;70341;56.408;10.874;2023-07-29T02:26:37;100552.46;;;18.88;69.01
80781;BME280;70341;56.408;10.874;2023-07-29T02:29:06;100554.36;;;18.84;69.04
80781;BME280;70341;56.408;10.874;2023-07-29T02:31:36;100551.80;;;18.82;68.99
80781;BME280;70341;56.408;10.874;2023-07-29T02:34:04;100550.58;;;18.80;68.70
80781;BME280;70341;56.408;10.874;2023-07-29T02:36:34;100540.83;;;18.78;68.78
80781;BME280;70341;56.408;10.874;2023-07-29T02:39:03;100543.84;;;18.76;68.75
80781;BME280;70341;56.408;10.874;2023-07-29T02:41:33;100543.19;;;18.73;68.75
80781;BME280;70341;56.408;10.874;2023-07-29T02:44:02;100537.11;;;18.66;68.54
80781;BME280;70341;56.408;10.874;2023-07-29T02:46:32;100538.21;;;18.60;68.45
80781;BME280;70341;56.408;10.874;2023-07-29T02:49:02;100545.35;;;18.53;68.62
80781;BME280;70341;56.408;10.874;2023-07-29T02:51:32;100543.64;;;18.50;68.72
80781;BME280;70341;56.408;10.874;2023-07-29T02:54:00;100542.81;;;18.47;68.56
80781;BME280;70341;56.408;10.874;2023-07-29T02:56:31;100545.21;;;18.46;68.62
80781;BME280;70341;56.408;10.874;2023-07-29T02:58:59;100539.87;;;18.45;68.71
80781;BME280;70341;56.408;10.874;2023-07-29T03:01:30;100541.43;;;18.46;68.60
80781;BME280;70341;56.408;10.874;2023-07-29T03:03:58;100542.46;;;18.47;68.83
80781;BME280;70341;56.408;10.874;2023-07-29T03:06:28;100545.52;;;18.49;68.37
80781;BME280;70341;56.408;10.874;2023-07-29T03:08:56;100550.75;;;18.51;68.25
80781;BME280;70341;56.408;10.874;2023-07-29T03:11:27;100547.66;;;18.54;68.27
80781;BME280;70341;56.408;10.874;2023-07-29T03:13:55;100554.70;;;18.58;68.04
80781;BME280;70341;56.408;10.874;2023-07-29T03:16:26;100552.74;;;18.58;67.84
80781;BME280;70341;56.408;10.874;2023-07-29T03:18:54;100549.70;;;18.58;67.82
80781;BME280;70341;56.408;10.874;2023-07-29T03:21:25;100548.38;;;18.58;67.77
80781;BME280;70341;56.408;10.874;2023-07-29T03:23:53;100553.09;;;18.58;67.81
80781;BME280;70341;56.408;10.874;2023-07-29T03:26:24;100551.52;;;18.55;67.82
80781;BME280;70341;56.408;10.874;2023-07-29T03:28:52;100549.90;;;18.55;67.86
80781;BME280;70341;56.408;10.874;2023-07-29T03:31:22;100545.27;;;18.59;67.79
80781;BME280;70341;56.408;10.874;2023-07-29T03:33:50;100544.55;;;18.65;67.95
80781;BME280;70341;56.408;10.874;2023-07-29T03:36:21;100542.34;;;18.70;67.79
80781;BME280;70341;56.408;10.874;2023-07-29T03:38:49;100540.26;;;18.73;67.41
80781;BME280;70341;56.408;10.874;2023-07-29T03:41:20;100543.48;;;18.76;67.40
80781;BME280;70341;56.408;10.874;2023-07-29T03:43:48;100547.83;;;18.78;67.41
80781;BME280;70341;56.408;10.874;2023-07-29T03:46:18;100551.81;;;18.75;67.47
80781;BME280;70341;56.408;10.874;2023-07-29T03:48:47;100546.35;;;18.78;67.30
80781;BME280;70341;56.408;10.874;2023-07-29T03:51:17;100546.25;;;18.80;67.32
80781;BME280;70341;56.408;10.874;2023-07-29T03:53:45;100545.72;;;18.79;67.31
80781;BME280;70341;56.408;10.874;2023-07-29T03:56:16;100538.18;;;18.79;67.31
80781;BME280;70341;56.408;10.874;2023-07-29T03:58:46;100543.19;;;18.80;67.22
80781;BME280;70341;56.408;10.874;2023-07-29T04:01:15;100545.70;;;18.78;67.20
80781;BME280;70341;56.408;10.874;2023-07-29T04:03:45;100542.88;;;18.75;67.29
80781;BME280;70341;56.408;10.874;2023-07-29T04:06:15;100539.23;;;18.70;67.38
80781;BME280;70341;56.408;10.874;2023-07-29T04:08:43;100543.63;;;18.72;67.39
80781;BME280;70341;56.408;10.874;2023-07-29T04:11:13;100549.31;;;18.73;67.58
80781;BME280;70341;56.408;10.874;2023-07-29T04:13:41;100546.07;;;18.70;67.47
80781;BME280;70341;56.408;10.874;2023-07-29T04:16:12;100542.71;;;18.67;67.43
80781;BME280;70341;56.408;10.874;2023-07-29T04:18:40;100542.00;;;18.65;67.65
80781;BME280;70341;56.408;10.874;2023-07-29T04:21:11;100542.66;;;18.63;67.78
80781;BME280;70341;56.408;10.874;2023-07-29T04:23:39;100545.92;;;18.65;68.07
80781;BME280;70341;56.408;10.874;2023-07-29T04:26:10;100545.70;;;18.68;67.92
80781;BME280;70341;56.408;10.874;2023-07-29T04:28:38;100549.32;;;18.70;67.89
80781;BME280;70341;56.408;10.874;2023-07-29T04:31:09;100545.12;;;18.73;67.65
80781;BME280;70341;56.408;10.874;2023-07-29T04:33:37;100539.24;;;18.75;67.49
80781;BME280;70341;56.408;10.874;2023-07-29T04:36:08;100542.49;;;18.72;67.55
80781;BME280;70341;56.408;10.874;2023-07-29T04:38:37;100546.41;;;18.71;67.55
80781;BME280;70341;56.408;10.874;2023-07-29T04:41:07;100544.11;;;18.72;67.66
80781;BME280;70341;56.408;10.874;2023-07-29T04:43:35;100547.56;;;18.74;67.60
80781;BME280;70341;56.408;10.874;2023-07-29T04:46:07;100546.50;;;18.77;67.63
80781;BME280;70341;56.408;10.874;2023-07-29T04:48:35;100551.17;;;18.81;67.66
80781;BME280;70341;56.408;10.874;2023-07-29T04:51:05;100549.19;;;18.86;67.64
80781;BME280;70341;56.408;10.874;2023-07-29T04:53:33;100552.85;;;18.90;67.54
80781;BME280;70341;56.408;10.874;2023-07-29T04:56:04;100548.91;;;18.92;67.61
80781;BME280;70341;56.408;10.874;2023-07-29T04:58:32;100550.17;;;18.96;67.61
80781;BME280;70341;56.408;10.874;2023-07-29T05:01:04;100548.40;;;18.98;67.60
80781;BME280;70341;56.408;10.874;2023-07-29T05:03:33;100547.89;;;19.03;67.60
80781;BME280;70341;56.408;10.874;2023-07-29T05:06:02;100545.11;;;19.06;67.66
80781;BME280;70341;56.408;10.874;2023-07-29T05:08:31;100545.82;;;19.06;67.71
80781;BME280;70341;56.408;10.874;2023-07-29T05:11:00;100545.30;;;19.06;67.75
80781;BME280;70341;56.408;10.874;2023-07-29T05:13:29;100544.55;;;19.04;67.85
80781;BME280;70341;56.408;10.874;2023-07-29T05:15:59;100542.58;;;19.06;67.82
80781;BME280;70341;56.408;10.874;2023-07-29T05:18:28;100539.65;;;19.11;67.72
80781;BME280;70341;56.408;10.874;2023-07-29T05:20:58;100536.88;;;19.14;67.55
80781;BME280;70341;56.408;10.874;2023-07-29T05:23:26;100538.72;;;19.19;67.52
80781;BME280;70341;56.408;10.874;2023-07-29T05:25:56;100538.74;;;19.21;67.41
80781;BME280;70341;56.408;10.874;2023-07-29T05:28:24;100538.71;;;19.23;67.46
80781;BME280;70341;56.408;10.874;2023-07-29T05:30:54;100534.73;;;19.26;67.42
80781;BME280;70341;56.408;10.874;2023-07-29T05:33:22;100538.80;;;19.31;67.44
80781;BME280;70341;56.408;10.874;2023-07-29T05:35:52;100531.84;;;19.36;67.27
80781;BME280;70341;56.408;10.874;2023-07-29T05:38:21;100531.83;;;19.46;67.30
80781;BME280;70341;56.408;10.874;2023-07-29T05:40:50;100530.11;;;19.54;67.12
80781;BME280;70341;56.408;10.874;2023-07-29T05:43:19;100523.48;;;19.62;66.96
80781;BME280;70341;56.408;10.874;2023-07-29T05:45:50;100524.36;;;19.74;66.82
80781;BME280;70341;56.408;10.874;2023-07-29T05:48:20;100526.09;;;19.84;66.76
80781;BME280;70341;56.408;10.874;2023-07-29T05:50:49;100524.78;;;19.99;66.53
80781;BME280;70341;56.408;10.874;2023-07-29T05:53:17;100517.16;;;20.19;66.16
80781;BME280;70341;56.408;10.874;2023-07-29T05:55:48;100515.42;;;20.38;65.82
80781;BME280;70341;56.408;10.874;2023-07-29T05:58:17;100515.58;;;20.53;65.29
80781;BME280;70341;56.408;10.874;2023-07-29T06:00:47;100514.08;;;20.67;64.98
80781;BME280;70341;56.408;10.874;2023-07-29T06:03:17;100517.23;;;20.74;64.93
80781;BME280;70341;56.408;10.874;2023-07-29T06:05:48;100516.77;;;20.83;64.68
80781;BME280;70341;56.408;10.874;2023-07-29T06:08:22;100511.16;;;20.91;64.28
80781;BME280;70341;56.408;10.874;2023-07-29T06:10:51;100510.38;;;21.01;64.04
80781;BME280;70341;56.408;10.874;2023-07-29T06:13:20;100511.42;;;21.11;63.75
80781;BME280;70341;56.408;10.874;2023-07-29T06:15:48;100514.39;;;21.21;63.49
80781;BME280;70341;56.408;10.874;2023-07-29T06:18:18;100508.57;;;21.34;62.94
80781;BME280;70341;56.408;10.874;2023-07-29T06:20:46;100511.31;;;21.41;62.22
80781;BME280;70341;56.408;10.874;2023-07-29T06:23:17;100514.44;;;21.46;62.22
80781;BME280;70341;56.408;10.874;2023-07-29T06:25:45;100508.44;;;21.45;61.82
80781;BME280;70341;56.408;10.874;2023-07-29T06:28:16;100510.17;;;21.38;62.12
80781;BME280;70341;56.408;10.874;2023-07-29T06:30:44;100516.61;;;21.37;61.85
80781;BME280;70341;56.408;10.874;2023-07-29T06:33:14;100514.67;;;21.44;62.02
80781;BME280;70341;56.408;10.874;2023-07-29T06:35:42;100519.25;;;21.56;61.93
80781;BME280;70341;56.408;10.874;2023-07-29T06:38:12;100516.30;;;21.67;61.59
80781;BME280;70341;56.408;10.874;2023-07-29T06:40:40;100519.35;;;21.77;61.38
80781;BME280;70341;56.408;10.874;2023-07-29T06:43:10;100519.98;;;21.82;61.21
80781;BME280;70341;56.408;10.874;2023-07-29T06:45:39;100518.38;;;21.89;61.07
80781;BME280;70341;56.408;10.874;2023-07-29T06:48:08;100515.05;;;21.94;60.23
80781;BME280;70341;56.408;10.874;2023-07-29T06:50:36;100513.45;;;21.92;60.42
80781;BME280;70341;56.408;10.874;2023-07-29T06:53:09;100512.91;;;21.92;60.52
80781;BME280;70341;56.408;10.874;2023-07-29T06:55:37;100520.27;;;21.90;60.31
80781;BME280;70341;56.408;10.874;2023-07-29T06:58:07;100520.64;;;21.84;60.34
80781;BME280;70341;56.408;10.874;2023-07-29T07:00:35;100513.38;;;21.75;60.65
80781;BME280;70341;56.408;10.874;2023-07-29T07:03:05;100508.07;;;21.65;60.85
80781;BME280;70341;56.408;10.874;2023-07-29T07:05:34;100509.60;;;21.60;61.40
80781;BME280;70341;56.408;10.874;2023-07-29T07:08:04;100512.86;;;21.57;61.24
80781;BME280;70341;56.408;10.874;2023-07-29T07:10:33;100500.63;;;21.54;61.32
80781;BME280;70341;56.408;10.874;2023-07-29T07:13:03;100499.48;;;21.52;61.36
80781;BME280;70341;56.408;10.874;2023-07-29T07:15:32;100508.25;;;21.52;61.30
80781;BME280;70341;56.408;10.874;2023-07-29T07:18:02;100511.83;;;21.45;61.63
80781;BME280;70341;56.408;10.874;2023-07-29T07:20:31;100513.01;;;21.49;61.18
80781;BME280;70341;56.408;10.874;2023-07-29T07:23:00;100509.17;;;21.59;60.77
80781;BME280;70341;56.408;10.874;2023-07-29T07:25:29;100509.02;;;21.71;60.91
80781;BME280;70341;56.408;10.874;2023-07-29T07:27:59;100515.48;;;21.80;60.62
80781;BME280;70341;56.408;10.874;2023-07-29T07:30:27;100513.59;;;21.84;60.52
80781;BME280;70341;56.408;10.874;2023-07-29T07:32:57;100512.70;;;21.84;60.48
80781;BME280;70341;56.408;10.874;2023-07-29T07:35:25;100515.20;;;21.74;59.98
80781;BME280;70341;56.408;10.874;2023-07-29T07:37:55;100516.28;;;21.66;60.26
80781;BME280;70341;56.408;10.874;2023-07-29T07:40:23;100519.66;;;21.51;60.25
80781;BME280;70341;56.408;10.874;2023-07-29T07:42:53;100523.05;;;21.39;60.21
80781;BME280;70341;56.408;10.874;2023-07-29T07:45:21;100516.29;;;21.36;60.82
80781;BME280;70341;56.408;10.874;2023-07-29T07:47:52;100512.96;;;21.39;60.94
80781;BME280;70341;56.408;10.874;2023-07-29T07:50:21;100503.09;;;21.48;60.93
80781;BME280;70341;56.408;10.874;2023-07-29T07:52:51;100498.85;;;21.62;60.42
80781;BME280;70341;56.408;10.874;2023-07-29T07:55:19;100500.85;;;21.93;59.56
80781;BME280;70341;56.408;10.874;2023-07-29T07:57:50;100502.48;;;22.36;58.71
80781;BME280;70341;56.408;10.874;2023-07-29T08:00:18;100501.89;;;22.75;57.65
80781;BME280;70341;56.408;10.874;2023-07-29T08:02:48;100500.60;;;22.91;56.87
80781;BME280;70341;56.408;10.874;2023-07-29T08:05:16;100503.70;;;23.00;56.62
80781;BME280;70341;56.408;10.874;2023-07-29T08:07:46;100502.80;;;23.02;56.18
80781;BME280;70341;56.408;10.874;2023-07-29T08:10:14;100503.09;;;22.91;55.97
80781;BME280;70341;56.408;10.874;2023-07-29T08:12:44;100500.87;;;22.75;55.92
80781;BME280;70341;56.408;10.874;2023-07-29T08:15:12;100492.06;;;22.70;56.46
80781;BME280;70341;56.408;10.874;2023-07-29T08:17:42;100489.23;;;22.73;56.13
80781;BME280;70341;56.408;10.874;2023-07-29T08:20:10;100486.33;;;22.71;56.21
80781;BME280;70341;56.408;10.874;2023-07-29T08:22:41;100488.61;;;22.68;56.24
80781;BME280;70341;56.408;10.874;2023-07-29T08:25:09;100479.53;;;22.70;56.23
80781;BME280;70341;56.408;10.874;2023-07-29T08:27:39;100481.22;;;22.82;55.80
80781;BME280;70341;56.408;10.874;2023-07-29T08:30:08;100482.20;;;22.94;55.54
80781;BME280;70341;56.408;10.874;2023-07-29T08:32:37;100482.16;;;23.07;55.50
80781;BME280;70341;56.408;10.874;2023-07-29T08:35:06;100480.96;;;23.29;56.07
80781;BME280;70341;56.408;10.874;2023-07-29T08:37:35;100486.86;;;23.37;55.37
80781;BME280;70341;56.408;10.874;2023-07-29T08:40:05;100483.60;;;23.28;54.93
80781;BME280;70341;56.408;10.874;2023-07-29T08:42:38;100479.08;;;23.11;55.06
80781;BME280;70341;56.408;10.874;2023-07-29T08:45:07;100475.03;;;22.89;54.87
80781;BME280;70341;56.408;10.874;2023-07-29T08:47:37;100475.59;;;22.76;55.66
80781;BME280;70341;56.408;10.874;2023-07-29T08:50:06;100474.86;;;22.72;56.19
80781;BME280;70341;56.408;10.874;2023-07-29T08:52:38;100472.13;;;22.78;56.01
80781;BME280;70341;56.408;10.874;2023-07-29T08:55:07;100481.35;;;22.82;55.94
80781;BME280;70341;56.408;10.874;2023-07-29T08:57:37;100480.56;;;22.85;55.67
80781;BME280;70341;56.408;10.874;2023-07-29T09:00:07;100478.29;;;22.99;55.32
80781;BME280;70341;56.408;10.874;2023-07-29T09:02:36;100480.70;;;23.37;54.63
80781;BME280;70341;56.408;10.874;2023-07-29T09:05:06;100473.79;;;23.81;53.97
80781;BME280;70341;56.408;10.874;2023-07-29T09:07:36;100472.11;;;24.27;52.81
80781;BME280;70341;56.408;10.874;2023-07-29T09:10:08;100471.49;;;24.82;51.24
80781;BME280;70341;56.408;10.874;2023-07-29T09:12:39;100466.52;;;25.33;49.95
80781;BME280;70341;56.408;10.874;2023-07-29T09:15:08;100467.14;;;25.75;49.37
80781;BME280;70341;56.408;10.874;2023-07-29T09:17:40;100461.45;;;26.22;48.00
80781;BME280;70341;56.408;10.874;2023-07-29T09:20:10;100463.53;;;26.70;46.16
80781;BME280;70341;56.408;10.874;2023-07-29T09:22:39;100466.97;;;27.11;44.93
80781;BME280;70341;56.408;10.874;2023-07-29T09:25:08;100465.19;;;27.70;44.37
80781;BME280;70341;56.408;10.874;2023-07-29T09:27:37;100468.73;;;28.06;43.37
80781;BME280;70341;56.408;10.874;2023-07-29T09:30:07;100466.09;;;28.39;42.03
80781;BME280;70341;56.408;10.874;2023-07-29T09:32:44;100460.62;;;28.73;41.33
80781;BME280;70341;56.408;10.874;2023-07-29T09:35:13;100464.91;;;28.87;41.57
80781;BME280;70341;56.408;10.874;2023-07-29T09:37:43;100466.13;;;28.80;41.25
80781;BME280;70341;56.408;10.874;2023-07-29T09:40:15;100463.29;;;28.66;42.08
80781;BME280;70341;56.408;10.874;2023-07-29T09:42:55;100467.33;;;28.65;42.17
80781;BME280;70341;56.408;10.874;2023-07-29T09:45:27;100464.64;;;28.72;41.89
80781;BME280;70341;56.408;10.874;2023-07-29T09:47:57;100469.81;;;28.39;42.40
80781;BME280;70341;56.408;10.874;2023-07-29T09:50:27;100473.11;;;27.82;42.99
80781;BME280;70341;56.408;10.874;2023-07-29T09:52:57;100473.80;;;27.27;43.91
80781;BME280;70341;56.408;10.874;2023-07-29T09:55:26;100463.58;;;26.91;44.74
80781;BME280;70341;56.408;10.874;2023-07-29T09:58:00;100471.05;;;26.71;45.31
80781;BME280;70341;56.408;10.874;2023-07-29T10:00:32;100466.14;;;26.60;45.78
80781;BME280;70341;56.408;10.874;2023-07-29T10:03:00;100471.94;;;26.54;45.96
80781;BME280;70341;56.408;10.874;2023-07-29T10:05:30;100472.66;;;26.41;46.03
80781;BME280;70341;56.408;10.874;2023-07-29T10:07:59;100468.70;;;26.22;46.27
80781;BME280;70341;56.408;10.874;2023-07-29T10:10:29;100472.10;;;25.98;46.92
80781;BME280;70341;56.408;10.874;2023-07-29T10:12:58;100466.98;;;25.70;47.49
80781;BME280;70341;56.408;10.874;2023-07-29T10:15:31;100471.84;;;25.44;48.26
80781;BME280;70341;56.408;10.874;2023-07-29T10:18:01;100472.11;;;25.21;48.92
80781;BME280;70341;56.408;10.874;2023-07-29T10:20:32;100465.08;;;25.04;49.20
80781;BME280;70341;56.408;10.874;2023-07-29T10:23:07;100463.48;;;24.91;49.55
80781;BME280;70341;56.408;10.874;2023-07-29T10:25:46;100470.65;;;24.83;50.07
80781;BME280;70341;56.408;10.874;2023-07-29T10:28:20;100467.40;;;24.80;50.17
80781;BME280;70341;56.408;10.874;2023-07-29T10:30:49;100477.64;;;24.77;49.84
80781;BME280;70341;56.408;10.874;2023-07-29T10:33:19;100478.87;;;24.65;49.86
80781;BME280;70341;56.408;10.874;2023-07-29T10:35:49;100481.11;;;24.44;50.38
80781;BME280;70341;56.408;10.874;2023-07-29T10:38:24;100483.59;;;24.17;50.61
80781;BME280;70341;56.408;10.874;2023-07-29T10:40:56;100479.53;;;23.89;51.27
80781;BME280;70341;56.408;10.874;2023-07-29T10:43:36;100485.30;;;23.57;51.84
80781;BME280;70341;56.408;10.874;2023-07-29T10:46:21;100482.77;;;23.22;52.93
80781;BME280;70341;56.408;10.874;2023-07-29T10:51:36;100490.04;;;22.78;54.65
80781;BME280;70341;56.408;10.874;2023-07-29T10:54:12;100492.23;;;22.76;55.77
80781;BME280;70341;56.408;10.874;2023-07-29T10:56:48;100495.58;;;22.85;58.01
80781;BME280;70341;56.408;10.874;2023-07-29T11:02:00;100485.04;;;22.87;59.98
80781;BME280;70341;56.408;10.874;2023-07-29T11:04:30;100476.35;;;22.58;60.11
80781;BME280;70341;56.408;10.874;2023-07-29T11:09:40;100481.58;;;22.12;60.64
80781;BME280;70341;56.408;10.874;2023-07-29T11:15:23;100485.63;;;21.71;61.13
80781;BME280;70341;56.408;10.874;2023-07-29T11:17:56;100495.65;;;21.61;61.30
80781;BME280;70341;56.408;10.874;2023-07-29T11:20:31;100484.88;;;21.48;62.10
80781;BME280;70341;56.408;10.874;2023-07-29T11:23:03;100486.02;;;21.41;62.70
80781;BME280;70341;56.408;10.874;2023-07-29T11:25:31;100486.38;;;21.35;62.55
80781;BME280;70341;56.408;10.874;2023-07-29T11:28:01;100471.94;;;21.31;62.50
80781;BME280;70341;56.408;10.874;2023-07-29T11:30:39;100472.84;;;21.27;62.63
80781;BME280;70341;56.408;10.874;2023-07-29T11:33:08;100473.56;;;21.31;62.77
80781;BME280;70341;56.408;10.874;2023-07-29T11:35:37;100473.52;;;21.41;63.78
80781;BME280;70341;56.408;10.874;2023-07-29T11:38:06;100475.95;;;21.61;64.64
80781;BME280;70341;56.408;10.874;2023-07-29T11:40:36;100472.48;;;21.89;64.19
80781;BME280;70341;56.408;10.874;2023-07-29T11:43:05;100472.88;;;22.18;63.49
80781;BME280;70341;56.408;10.874;2023-07-29T11:45:35;100467.05;;;22.28;63.12
80781;BME280;70341;56.408;10.874;2023-07-29T11:48:28;100462.29;;;22.42;62.35
80781;BME280;70341;56.408;10.874;2023-07-29T11:50:58;100464.46;;;22.67;61.45
80781;BME280;70341;56.408;10.874;2023-07-29T11:53:29;100464.45;;;23.07;61.04
80781;BME280;70341;56.408;10.874;2023-07-29T11:55:59;100456.51;;;23.36;59.42
80781;BME280;70341;56.408;10.874;2023-07-29T11:58:27;100446.13;;;23.57;58.55
80781;BME280;70341;56.408;10.874;2023-07-29T12:00:56;100444.67;;;23.79;57.93
80781;BME280;70341;56.408;10.874;2023-07-29T12:03:25;100446.04;;;24.03;57.63
80781;BME280;70341;56.408;10.874;2023-07-29T12:05:55;100447.40;;;24.38;56.00
80781;BME280;70341;56.408;10.874;2023-07-29T12:08:24;100443.25;;;25.00;54.70
80781;BME280;70341;56.408;10.874;2023-07-29T12:10:54;100439.17;;;26.02;52.54
80781;BME280;70341;56.408;10.874;2023-07-29T12:13:26;100446.70;;;26.33;51.72
80781;BME280;70341;56.408;10.874;2023-07-29T12:16:03;100453.09;;;26.41;50.71
80781;BME280;70341;56.408;10.874;2023-07-29T12:18:33;100445.95;;;26.47;50.17
80781;BME280;70341;56.408;10.874;2023-07-29T12:21:03;100445.22;;;26.61;49.79
80781;BME280;70341;56.408;10.874;2023-07-29T12:23:32;100437.82;;;27.08;48.61
80781;BME280;70341;56.408;10.874;2023-07-29T12:26:01;100436.80;;;27.75;46.87
80781;BME280;70341;56.408;10.874;2023-07-29T12:28:30;100430.52;;;28.31;45.59
80781;BME280;70341;56.408;10.874;2023-07-29T12:30:59;100431.10;;;28.65;45.09
80781;BME280;70341;56.408;10.874;2023-07-29T12:35:59;100429.72;;;30.24;41.56
80781;BME280;70341;56.408;10.874;2023-07-29T12:38:29;100432.48;;;30.02;41.14
80781;BME280;70341;56.408;10.874;2023-07-29T12:40:57;100424.92;;;29.48;41.27
80781;BME280;70341;56.408;10.874;2023-07-29T12:43:28;100425.52;;;29.03;42.04
80781;BME280;70341;56.408;10.874;2023-07-29T12:45:57;100426.33;;;28.59;42.53
80781;BME280;70341;56.408;10.874;2023-07-29T12:48:26;100428.38;;;28.31;43.17
80781;BME280;70341;56.408;10.874;2023-07-29T12:50:55;100428.50;;;28.42;43.10
80781;BME280;70341;56.408;10.874;2023-07-29T12:53:25;100428.38;;;28.07;44.23
80781;BME280;70341;56.408;10.874;2023-07-29T12:55:54;100426.08;;;27.58;44.80
80781;BME280;70341;56.408;10.874;2023-07-29T12:58:24;100423.77;;;27.29;45.91
80781;BME280;70341;56.408;10.874;2023-07-29T13:00:52;100424.57;;;27.06;46.40
80781;BME280;70341;56.408;10.874;2023-07-29T13:03:22;100422.34;;;26.84;46.74
80781;BME280;70341;56.408;10.874;2023-07-29T13:05:51;100416.86;;;26.46;47.89
80781;BME280;70341;56.408;10.874;2023-07-29T13:08:21;100417.31;;;26.09;48.31
80781;BME280;70341;56.408;10.874;2023-07-29T13:10:49;100417.38;;;25.64;49.13
80781;BME280;70341;56.408;10.874;2023-07-29T13:13:20;100424.30;;;25.27;49.98